Time;durP1;ratioP1;P1;durP2;ratioP2;P2;SDS_P1;SDS_P2;PMS_P1;PMS_P2;Temp;Humidity;BMP_temperature;BMP_pressure;BME280_temperature;BME280_humidity;BME280_pressure;Samples;Min_cycle;Max_cycle;Signal;HPM_P1;HPM_P2
2022/02/12 00:02:16;;;;;;;20.75;14.85;;;0.70;1.00;;;;;;4941290;29;20071;-80
2022/02/12 00:04:42;;;;;;;23.00;15.38;;;1.00;1.00;;;;;;4953088;29;20101;-80
2022/02/12 00:07:09;;;;;;;19.42;14.10;;;0.90;1.00;;;;;;4941919;28;20040;-80
2022/02/12 00:09:35;;;;;;;20.48;14.27;;;1.00;1.00;;;;;;4945749;29;20038;-80
2022/02/12 00:12:02;;;;;;;16.48;13.15;;;0.90;1.00;;;;;;4933805;29;20043;-74
2022/02/12 00:14:28;;;;;;;25.35;14.63;;;0.90;1.00;;;;;;4934618;29;20497;-75
2022/02/12 00:16:53;;;;;;;23.48;15.23;;;0.80;1.00;;;;;;4934668;29;20046;-76
2022/02/12 00:19:19;;;;;;;18.50;14.48;;;0.70;1.00;;;;;;4937749;29;20019;-83
2022/02/12 00:21:44;;;;;;;24.70;15.23;;;0.70;1.00;;;;;;4934917;29;20023;-77
2022/02/12 00:24:10;;;;;;;23.40;14.90;;;0.60;1.00;;;;;;4937830;29;20020;-80
2022/02/12 00:26:36;;;;;;;27.95;15.32;;;0.60;1.00;;;;;;4940911;29;20024;-79
2022/02/12 00:29:01;;;;;;;22.45;16.35;;;0.60;1.00;;;;;;4941707;29;20051;-83
2022/02/12 00:31:27;;;;;;;31.70;17.08;;;0.60;1.00;;;;;;4939650;29;20039;-84
2022/02/12 00:33:52;;;;;;;21.52;15.32;;;0.60;1.00;;;;;;4941431;29;20440;-83
2022/02/12 00:36:18;;;;;;;29.60;18.08;;;0.70;1.00;;;;;;4939069;29;20039;-82
2022/02/12 00:38:43;;;;;;;18.58;13.98;;;0.70;1.00;;;;;;4945642;29;20055;-84
2022/02/12 00:41:09;;;;;;;22.60;14.57;;;0.80;1.00;;;;;;4941840;29;20020;-82
2022/02/12 00:43:35;;;;;;;21.58;15.05;;;0.70;1.00;;;;;;4941376;29;20485;-83
2022/02/12 00:46:01;;;;;;;24.80;16.25;;;0.70;1.00;;;;;;4940798;29;20034;-83
2022/02/12 00:48:26;;;;;;;27.25;14.07;;;0.60;1.00;;;;;;4946933;29;20043;-82
2022/02/12 00:50:59;;;;;;;27.00;16.25;;;0.50;1.00;;;;;;4949571;29;20313;-82
2022/02/12 00:53:24;;;;;;;23.48;16.08;;;0.50;1.00;;;;;;4933031;29;20032;-83
2022/02/12 00:55:50;;;;;;;25.30;15.05;;;0.50;1.00;;;;;;4941152;29;20034;-82
2022/02/12 00:58:15;;;;;;;26.17;15.75;;;0.40;1.00;;;;;;4937261;29;20034;-84
2022/02/12 01:00:41;;;;;;;23.58;14.48;;;0.40;1.00;;;;;;4944069;29;20397;-83
2022/02/12 01:03:06;;;;;;;28.80;16.75;;;0.40;1.00;;;;;;4939281;29;20484;-82
2022/02/12 01:05:32;;;;;;;21.10;15.13;;;0.40;1.00;;;;;;4937798;29;21288;-83
2022/02/12 01:07:58;;;;;;;22.17;14.77;;;0.40;1.00;;;;;;4952895;28;20020;-82
2022/02/12 01:10:23;;;;;;;25.85;15.35;;;0.40;1.00;;;;;;4942839;28;20054;-83
2022/02/12 01:12:49;;;;;;;18.95;13.95;;;0.40;1.00;;;;;;4934262;29;20036;-83
2022/02/12 01:15:14;;;;;;;20.20;14.95;;;0.40;1.00;;;;;;4944271;29;20024;-83
2022/02/12 01:17:40;;;;;;;25.00;16.00;;;0.30;1.00;;;;;;4937865;29;20571;-83
2022/02/12 01:20:06;;;;;;;24.80;15.75;;;0.30;1.00;;;;;;4939817;29;20023;-85
2022/02/12 01:22:32;;;;;;;21.98;15.40;;;0.40;1.00;;;;;;4940325;29;20123;-84
2022/02/12 01:24:57;;;;;;;21.23;14.88;;;0.40;1.00;;;;;;4938645;29;20115;-83
2022/02/12 01:27:23;;;;;;;27.80;17.10;;;0.30;1.00;;;;;;4945251;29;20035;-83
2022/02/12 01:29:49;;;;;;;24.00;16.95;;;0.30;1.00;;;;;;4953073;28;20024;-83
2022/02/12 01:32:14;;;;;;;25.58;14.77;;;0.30;1.00;;;;;;4938983;29;20465;-83
2022/02/12 01:34:40;;;;;;;21.83;14.80;;;0.20;1.00;;;;;;4940361;29;20031;-82
2022/02/12 01:37:07;;;;;;;19.17;15.00;;;0.20;1.00;;;;;;4940906;29;20059;-83
2022/02/12 01:39:33;;;;;;;20.67;14.13;;;0.20;1.00;;;;;;4941369;28;20024;-83
2022/02/12 01:41:59;;;;;;;25.17;13.30;;;0.30;1.00;;;;;;4938989;29;20020;-84
2022/02/12 01:44:36;;;;;;;20.52;13.98;;;0.50;1.00;;;;;;4939589;29;20019;-83
2022/02/12 01:47:03;;;;;;;18.75;14.95;;;0.50;1.00;;;;;;4940773;29;20123;-82
2022/02/12 01:49:29;;;;;;;21.83;13.95;;;0.40;1.00;;;;;;4938754;29;20020;-81
2022/02/12 01:51:56;;;;;;;18.75;13.82;;;0.30;1.00;;;;;;4940488;29;20024;-82
2022/02/12 01:54:23;;;;;;;19.10;14.88;;;0.20;1.00;;;;;;4941366;29;20031;-82
2022/02/12 01:56:49;;;;;;;23.48;15.77;;;0.20;1.00;;;;;;4934007;29;20194;-83
2022/02/12 01:59:15;;;;;;;22.75;18.58;;;0.20;1.00;;;;;;4929633;29;20032;-83
2022/02/12 02:01:40;;;;;;;24.85;15.38;;;0.10;1.00;;;;;;4950689;28;20485;-83
2022/02/12 02:04:06;;;;;;;20.50;16.13;;;0.10;1.00;;;;;;4934983;29;20142;-83
2022/02/12 02:06:32;;;;;;;25.33;16.75;;;0.10;1.00;;;;;;4935905;29;20123;-82
2022/02/12 02:09:03;;;;;;;20.88;15.95;;;0.00;1.00;;;;;;4935986;29;20031;-82
2022/02/12 02:11:30;;;;;;;22.98;16.30;;;0.00;1.00;;;;;;4935376;29;20473;-83
2022/02/12 02:13:55;;;;;;;25.60;16.63;;;0.10;1.00;;;;;;4935950;29;20036;-83
2022/02/12 02:16:21;;;;;;;25.63;16.70;;;0.00;1.00;;;;;;4937160;29;20454;-82
2022/02/12 02:18:46;;;;;;;28.23;16.65;;;0.00;1.00;;;;;;4937338;29;20374;-82
2022/02/12 02:21:15;;;;;;;24.90;16.98;;;0.10;1.00;;;;;;4936781;29;20031;-82
2022/02/12 02:23:41;;;;;;;24.15;15.82;;;0.20;1.00;;;;;;4936721;29;20023;-84
2022/02/12 02:26:08;;;;;;;21.73;16.00;;;0.10;1.00;;;;;;4939156;29;20027;-82
2022/02/12 02:28:34;;;;;;;20.80;16.38;;;0.00;1.00;;;;;;4938708;29;20027;-82
2022/02/12 02:31:00;;;;;;;27.70;16.67;;;0.00;1.00;;;;;;4949432;29;20051;-82
2022/02/12 02:33:26;;;;;;;24.67;16.85;;;-0.10;1.00;;;;;;4959793;28;20019;-81
2022/02/12 02:35:52;;;;;;;25.00;18.58;;;-0.10;1.00;;;;;;4960407;28;20012;-82
2022/02/12 02:38:17;;;;;;;26.05;18.25;;;-0.10;1.00;;;;;;4961361;28;20054;-82
2022/02/12 02:40:45;;;;;;;28.27;19.40;;;0.10;1.00;;;;;;4949214;28;20055;-84
2022/02/12 02:43:11;;;;;;;27.42;19.63;;;0.20;1.00;;;;;;4947524;28;20024;-82
2022/02/12 02:45:37;;;;;;;30.80;20.42;;;0.30;1.00;;;;;;4943694;29;20020;-83
2022/02/12 02:48:05;;;;;;;34.20;20.60;;;0.40;1.00;;;;;;4943189;29;20024;-83
2022/02/12 02:56:01;;;;;;;26.65;19.15;;;0.30;1.00;;;;;;4936705;29;20042;-83
2022/02/12 02:58:33;;;;;;;33.28;19.45;;;0.40;1.00;;;;;;4939889;29;20024;-83
2022/02/12 03:00:59;;;;;;;36.60;21.42;;;0.30;1.00;;;;;;4940765;29;20023;-82
2022/02/12 03:03:25;;;;;;;29.48;19.50;;;0.30;1.00;;;;;;4940841;29;20020;-83
2022/02/12 03:05:51;;;;;;;29.52;19.02;;;0.40;1.00;;;;;;4940883;29;20114;-82
2022/02/12 03:08:16;;;;;;;28.00;19.10;;;0.30;1.00;;;;;;4950212;29;20051;-83
2022/02/12 03:10:42;;;;;;;26.13;17.88;;;0.20;1.00;;;;;;4941080;29;20043;-83
2022/02/12 03:13:08;;;;;;;25.27;17.20;;;0.30;1.00;;;;;;4944527;29;20063;-82
2022/02/12 03:15:38;;;;;;;28.42;18.33;;;0.30;1.00;;;;;;4951012;29;20043;-79
2022/02/12 03:18:04;;;;;;;30.58;17.90;;;0.30;1.00;;;;;;4954551;29;20036;-79
2022/02/12 03:20:29;;;;;;;35.13;19.92;;;0.30;1.00;;;;;;4966072;28;20044;-79
2022/02/12 03:22:55;;;;;;;26.20;18.92;;;0.10;1.00;;;;;;4938671;29;20027;-80
2022/02/12 03:25:21;;;;;;;50.97;20.40;;;0.20;1.00;;;;;;4931962;29;20020;-80
2022/02/12 03:27:52;;;;;;;38.90;20.40;;;0.10;1.00;;;;;;4931215;29;20024;-80
2022/02/12 03:30:17;;;;;;;57.00;20.58;;;0.20;1.00;;;;;;4936364;29;20032;-80
2022/02/12 03:32:43;;;;;;;167.15;21.85;;;0.40;1.00;;;;;;4937815;29;20054;-80
2022/02/12 03:35:09;;;;;;;85.40;20.00;;;0.30;1.00;;;;;;4937267;29;20024;-81
2022/02/12 03:37:34;;;;;;;151.75;21.55;;;0.00;1.00;;;;;;4937331;29;20106;-80
2022/02/12 03:40:00;;;;;;;89.40;20.77;;;-0.10;1.00;;;;;;4938681;29;20028;-79
2022/02/12 03:42:25;;;;;;;38.03;20.92;;;-0.20;1.00;;;;;;4940437;29;20066;-80
2022/02/12 03:44:51;;;;;;;172.25;19.10;;;-0.20;1.00;;;;;;4939408;29;20507;-80
2022/02/12 03:47:17;;;;;;;37.65;18.85;;;0.00;1.00;;;;;;4941298;29;20488;-80
2022/02/12 03:49:44;;;;;;;48.88;19.20;;;0.00;1.00;;;;;;4940177;29;20505;-79
2022/02/12 03:52:09;;;;;;;38.70;17.90;;;0.00;1.00;;;;;;4942314;29;20028;-80
2022/02/12 03:54:35;;;;;;;49.60;17.95;;;0.00;1.00;;;;;;4938798;29;20407;-79
2022/02/12 03:57:00;;;;;;;60.75;17.88;;;0.00;1.00;;;;;;4942040;29;20044;-80
2022/02/12 03:59:26;;;;;;;56.40;18.63;;;0.20;1.00;;;;;;4940341;29;20035;-79
2022/02/12 04:01:51;;;;;;;106.32;18.58;;;0.20;1.00;;;;;;4935621;29;20023;-80
2022/02/12 04:04:17;;;;;;;31.60;17.77;;;0.10;1.00;;;;;;4936156;29;20040;-80
2022/02/12 04:06:42;;;;;;;25.20;17.60;;;0.10;1.00;;;;;;4940029;29;20388;-80
2022/02/12 04:09:08;;;;;;;25.45;14.88;;;0.20;1.00;;;;;;4941661;29;20079;-81
2022/02/12 04:11:33;;;;;;;24.90;16.30;;;0.30;1.00;;;;;;4940719;29;20039;-79
2022/02/12 04:13:59;;;;;;;23.85;15.50;;;0.30;1.00;;;;;;4940544;29;20066;-79
2022/02/12 04:16:24;;;;;;;26.75;17.95;;;0.20;1.00;;;;;;4938171;29;20028;-80
2022/02/12 04:18:50;;;;;;;96.78;18.70;;;0.30;1.00;;;;;;4938760;29;20752;-80
2022/02/12 04:21:15;;;;;;;27.80;17.85;;;0.20;1.00;;;;;;4940543;29;20047;-79
2022/02/12 04:23:41;;;;;;;27.52;15.93;;;0.00;1.00;;;;;;4940169;29;20020;-80
2022/02/12 04:26:08;;;;;;;25.50;15.18;;;0.20;1.00;;;;;;4940107;29;20413;-81
2022/02/12 04:28:36;;;;;;;297.90;21.92;;;0.30;1.00;;;;;;4940240;29;20047;-79
2022/02/12 04:31:03;;;;;;;28.10;16.45;;;0.30;1.00;;;;;;4940485;29;20027;-80
2022/02/12 04:33:29;;;;;;;26.77;15.68;;;0.00;1.00;;;;;;4939964;29;20051;-81
2022/02/12 04:35:55;;;;;;;90.35;16.10;;;0.00;1.00;;;;;;4942223;29;20043;-80
2022/02/12 04:38:20;;;;;;;50.75;16.00;;;0.10;1.00;;;;;;4936637;29;20035;-79
2022/02/12 04:40:46;;;;;;;151.23;16.92;;;-0.20;1.00;;;;;;4937538;29;20028;-80
2022/02/12 04:43:12;;;;;;;30.67;15.18;;;-0.10;1.00;;;;;;4938319;29;20016;-80
2022/02/12 04:45:37;;;;;;;41.67;15.18;;;-0.30;1.00;;;;;;4938018;29;20032;-80
2022/02/12 04:48:03;;;;;;;30.85;14.98;;;-0.40;1.00;;;;;;4937441;29;20152;-79
2022/02/12 04:50:29;;;;;;;31.42;14.93;;;-0.40;1.00;;;;;;4938509;29;20035;-80
2022/02/12 04:52:56;;;;;;;20.55;14.23;;;-0.40;1.00;;;;;;4943591;29;20026;-79
2022/02/12 04:55:22;;;;;;;69.32;15.52;;;-0.50;1.00;;;;;;4938083;29;20031;-80
2022/02/12 04:57:48;;;;;;;65.85;16.02;;;-0.30;1.00;;;;;;4936509;29;20028;-80
2022/02/12 05:00:14;;;;;;;33.35;14.80;;;-0.30;1.00;;;;;;4939070;29;20024;-81
2022/02/12 05:02:42;;;;;;;52.45;13.70;;;-0.10;1.00;;;;;;4932438;29;20020;-79
2022/02/12 05:05:09;;;;;;;72.40;15.25;;;0.00;1.00;;;;;;4940562;29;20106;-80
2022/02/12 05:07:35;;;;;;;69.88;15.82;;;0.00;1.00;;;;;;4938430;29;20038;-79
2022/02/12 05:10:01;;;;;;;71.57;15.05;;;-0.10;1.00;;;;;;4938651;29;20028;-80
2022/02/12 05:12:27;;;;;;;111.35;16.42;;;-0.30;1.00;;;;;;4938763;29;20485;-80
2022/02/12 05:14:53;;;;;;;129.18;18.08;;;-0.40;1.00;;;;;;4938650;29;20031;-80
2022/02/12 05:17:18;;;;;;;195.65;17.67;;;-0.20;1.00;;;;;;4932644;29;20035;-79
2022/02/12 05:19:44;;;;;;;168.63;18.27;;;-0.20;1.00;;;;;;4942847;29;20019;-79
2022/02/12 05:22:10;;;;;;;106.95;19.13;;;-0.50;1.00;;;;;;4944274;29;20024;-80
2022/02/12 05:24:36;;;;;;;105.45;17.80;;;-0.60;1.00;;;;;;4956253;29;20012;-79
2022/02/12 05:27:02;;;;;;;91.03;16.80;;;-0.60;1.00;;;;;;4951777;29;20028;-80
2022/02/12 05:29:27;;;;;;;79.30;16.50;;;-0.50;1.00;;;;;;4954228;29;20038;-80
2022/02/12 05:31:53;;;;;;;78.40;18.00;;;-0.50;1.00;;;;;;4943368;29;20110;-81
2022/02/12 05:34:19;;;;;;;217.15;19.20;;;-0.60;1.00;;;;;;4942727;29;20034;-80
2022/02/12 05:36:45;;;;;;;123.47;18.20;;;-0.70;1.00;;;;;;4940832;29;20039;-80
2022/02/12 05:39:12;;;;;;;123.28;18.15;;;-0.60;1.00;;;;;;4939299;29;20163;-82
2022/02/12 05:41:37;;;;;;;308.90;21.10;;;-0.50;1.00;;;;;;4938261;29;20281;-79
2022/02/12 05:44:05;;;;;;;116.82;17.45;;;-0.40;1.00;;;;;;4937976;29;20362;-80
2022/02/12 05:46:30;;;;;;;74.90;14.88;;;-0.40;1.00;;;;;;4938757;29;20032;-79
2022/02/12 05:48:56;;;;;;;125.75;16.17;;;-0.30;1.00;;;;;;4937160;29;20036;-81
2022/02/12 05:51:22;;;;;;;118.82;16.42;;;-0.30;1.00;;;;;;4939157;29;20032;-79
2022/02/12 05:53:51;;;;;;;64.30;15.27;;;-0.30;1.00;;;;;;4938504;29;20034;-80
2022/02/12 05:56:17;;;;;;;142.80;13.52;;;-0.30;1.00;;;;;;4931366;29;20024;-80
2022/02/12 05:58:43;;;;;;;107.60;14.23;;;-0.20;1.00;;;;;;4937411;29;20036;-83
2022/02/12 06:01:08;;;;;;;65.82;13.80;;;-0.20;1.00;;;;;;4937747;29;20031;-82
2022/02/12 06:03:34;;;;;;;108.28;14.18;;;-0.50;1.00;;;;;;4936864;29;20069;-78
2022/02/12 06:05:59;;;;;;;49.83;14.07;;;-0.60;1.00;;;;;;4943388;29;20075;-79
2022/02/12 06:08:25;;;;;;;135.95;15.32;;;-0.70;1.00;;;;;;4941346;29;20035;-80
2022/02/12 06:10:51;;;;;;;67.00;15.02;;;-0.60;1.00;;;;;;4941490;29;20390;-80
2022/02/12 06:13:17;;;;;;;41.38;13.88;;;-0.70;1.00;;;;;;4940978;29;20024;-80
2022/02/12 06:15:43;;;;;;;66.40;13.25;;;-0.50;1.00;;;;;;4941652;29;20031;-80
2022/02/12 06:18:09;;;;;;;75.70;13.80;;;-0.40;1.00;;;;;;4941443;29;20027;-78
2022/02/12 06:20:34;;;;;;;75.68;14.38;;;-0.20;1.00;;;;;;4938504;29;20055;-79
2022/02/12 06:23:00;;;;;;;43.47;13.80;;;-0.40;1.00;;;;;;4940863;29;20020;-80
2022/02/12 06:25:26;;;;;;;40.05;12.95;;;-0.30;1.00;;;;;;4939971;29;20066;-79
2022/02/12 06:27:52;;;;;;;87.25;13.90;;;-0.50;1.00;;;;;;4940805;29;20047;-80
2022/02/12 06:30:17;;;;;;;65.55;14.43;;;-0.50;1.00;;;;;;4940835;29;20489;-80
2022/02/12 06:32:43;;;;;;;35.13;12.88;;;-0.80;1.00;;;;;;4937777;29;20039;-78
2022/02/12 06:35:09;;;;;;;61.90;13.73;;;-0.60;1.00;;;;;;4940275;29;20026;-81
2022/02/12 06:37:35;;;;;;;87.32;14.55;;;-0.60;1.00;;;;;;4940486;29;20138;-79
2022/02/12 06:40:00;;;;;;;69.03;12.88;;;-0.60;1.00;;;;;;4940859;29;20514;-81
2022/02/12 06:42:27;;;;;;;48.85;13.35;;;-0.70;1.00;;;;;;4942219;29;20095;-80
2022/02/12 06:44:52;;;;;;;43.50;14.13;;;-0.70;1.00;;;;;;4943653;29;20019;-80
2022/02/12 06:47:18;;;;;;;70.40;11.57;;;-0.60;1.00;;;;;;4941905;29;20445;-81
2022/02/12 06:49:44;;;;;;;36.08;12.27;;;-0.50;1.00;;;;;;4942320;29;20028;-78
2022/02/12 06:52:10;;;;;;;27.63;11.93;;;-0.40;1.00;;;;;;4938107;29;20028;-81
2022/02/12 06:54:36;;;;;;;50.00;13.63;;;-0.30;1.00;;;;;;4953277;28;20034;-81
2022/02/12 06:57:02;;;;;;;31.08;13.82;;;-0.40;1.00;;;;;;4941727;29;20064;-80
2022/02/12 06:59:27;;;;;;;45.00;12.90;;;-0.50;1.00;;;;;;4942419;29;20517;-79
2022/02/12 07:01:53;;;;;;;31.77;13.85;;;-0.40;1.00;;;;;;4941276;29;20093;-81
2022/02/12 07:04:19;;;;;;;30.48;12.80;;;-0.50;1.00;;;;;;4940856;29;20496;-80
2022/02/12 07:06:44;;;;;;;30.70;13.10;;;-0.40;1.00;;;;;;4942046;29;20015;-80
2022/02/12 07:09:13;;;;;;;24.77;11.98;;;-0.50;1.00;;;;;;4941138;29;20027;-80
2022/02/12 07:11:39;;;;;;;33.20;14.88;;;-0.80;1.00;;;;;;4940264;29;20032;-80
2022/02/12 07:14:05;;;;;;;30.70;13.75;;;-0.80;1.00;;;;;;4941094;29;20032;-80
2022/02/12 07:16:31;;;;;;;22.08;12.20;;;-0.60;1.00;;;;;;4940654;29;20560;-81
2022/02/12 07:18:57;;;;;;;31.25;12.30;;;-0.30;1.00;;;;;;4940934;29;20059;-80
2022/02/12 07:21:23;;;;;;;19.92;12.00;;;-0.50;1.00;;;;;;4941560;29;20400;-80
2022/02/12 07:23:48;;;;;;;19.08;12.57;;;-0.50;1.00;;;;;;4941182;29;20016;-79
2022/02/12 07:26:14;;;;;;;25.67;12.57;;;-0.40;1.00;;;;;;4936075;29;20028;-82
2022/02/12 07:28:42;;;;;;;24.75;14.45;;;-0.60;1.00;;;;;;4941793;29;20027;-80
2022/02/12 07:31:09;;;;;;;21.52;14.10;;;-0.60;1.00;;;;;;4939968;29;20028;-80
2022/02/12 07:33:34;;;;;;;25.73;16.83;;;-0.70;1.00;;;;;;4940371;29;20035;-81
2022/02/12 07:36:00;;;;;;;24.23;14.65;;;-0.60;1.00;;;;;;4942161;29;20031;-81
2022/02/12 07:38:26;;;;;;;20.73;14.10;;;-0.30;1.00;;;;;;4939654;29;20059;-80
2022/02/12 07:40:51;;;;;;;25.70;13.65;;;-0.10;1.00;;;;;;4935423;29;20024;-80
2022/02/12 07:43:17;;;;;;;24.58;13.15;;;-0.20;1.00;;;;;;4941312;29;20025;-81
2022/02/12 07:45:42;;;;;;;20.98;12.85;;;-0.20;1.00;;;;;;4937876;29;20020;-82
2022/02/12 07:48:08;;;;;;;23.02;14.10;;;-0.10;1.00;;;;;;4930810;29;20039;-80
2022/02/12 07:50:33;;;;;;;20.40;13.18;;;-0.20;1.00;;;;;;4937509;29;20024;-80
2022/02/12 07:52:59;;;;;;;31.60;12.85;;;-0.20;1.00;;;;;;4939790;29;20083;-80
2022/02/12 07:55:24;;;;;;;24.83;13.10;;;-0.30;1.00;;;;;;4939251;29;20028;-81
2022/02/12 07:57:50;;;;;;;18.92;12.07;;;-0.30;1.00;;;;;;4940587;29;20028;-81
2022/02/12 08:00:17;;;;;;;18.85;12.95;;;-0.20;1.00;;;;;;4948759;29;20442;-80
2022/02/12 08:02:43;;;;;;;67.88;12.88;;;0.30;1.00;;;;;;4937739;29;20052;-80
2022/02/12 08:05:09;;;;;;;18.73;11.38;;;0.40;1.00;;;;;;4939626;29;20030;-80
2022/02/12 08:07:37;;;;;;;27.48;12.05;;;0.40;1.00;;;;;;4940090;29;20102;-82
2022/02/12 08:12:59;;;;;;;22.38;12.88;;;0.50;1.00;;;;;;4942179;29;20055;-80
2022/02/12 08:15:25;;;;;;;19.13;12.65;;;0.60;1.00;;;;;;4958984;28;20019;-79
2022/02/12 08:17:50;;;;;;;17.67;12.13;;;0.50;1.00;;;;;;4952995;28;20062;-80
2022/02/12 08:20:16;;;;;;;21.38;12.85;;;0.30;1.00;;;;;;4959763;28;20023;-80
2022/02/12 08:22:42;;;;;;;23.25;12.02;;;0.60;1.00;;;;;;4939507;28;20115;-80
2022/02/12 08:25:08;;;;;;;14.23;11.18;;;0.40;1.00;;;;;;4938571;29;20044;-81
2022/02/12 08:27:34;;;;;;;19.67;11.48;;;0.70;1.00;;;;;;4936466;29;20070;-81
2022/02/12 08:30:00;;;;;;;24.10;10.75;;;1.00;1.00;;;;;;4939061;29;20396;-80
2022/02/12 08:32:27;;;;;;;26.30;11.23;;;1.00;1.00;;;;;;4937822;29;20031;-81
2022/02/12 08:34:54;;;;;;;25.95;12.02;;;1.00;1.00;;;;;;4939940;29;20019;-83
2022/02/12 08:37:21;;;;;;;31.63;11.82;;;1.00;1.00;;;;;;4938394;29;20032;-80
2022/02/12 08:39:49;;;;;;;17.65;11.60;;;1.00;1.00;;;;;;4951689;29;20023;-79
2022/02/12 08:42:14;;;;;;;21.70;12.32;;;0.90;1.00;;;;;;4944666;29;20051;-80
2022/02/12 08:44:40;;;;;;;22.88;12.30;;;0.90;1.00;;;;;;4952183;29;20031;-80
2022/02/12 08:47:06;;;;;;;16.23;11.40;;;0.90;1.00;;;;;;4951998;29;20027;-80
2022/02/12 08:49:31;;;;;;;20.20;12.60;;;0.70;1.00;;;;;;4948051;29;20112;-81
2022/02/12 08:51:57;;;;;;;18.73;13.18;;;0.60;1.00;;;;;;4942038;29;20040;-80
2022/02/12 08:54:23;;;;;;;19.35;13.40;;;0.50;1.00;;;;;;4940036;29;20027;-80
2022/02/12 08:56:48;;;;;;;20.27;12.63;;;0.80;1.00;;;;;;4939871;29;20099;-81
2022/02/12 08:59:14;;;;;;;18.48;11.70;;;0.80;1.00;;;;;;4941614;29;20055;-81
2022/02/12 09:01:41;;;;;;;18.13;12.40;;;0.80;1.00;;;;;;4940778;29;20499;-81
2022/02/12 09:04:09;;;;;;;22.15;14.35;;;1.10;1.00;;;;;;4941680;29;20066;-81
2022/02/12 09:06:35;;;;;;;17.80;12.90;;;1.00;1.00;;;;;;4939196;29;20180;-81
2022/02/12 09:09:02;;;;;;;22.02;12.98;;;1.00;1.00;;;;;;4939512;29;20062;-82
2022/02/12 09:11:29;;;;;;;19.30;12.40;;;1.10;1.00;;;;;;4937767;29;20048;-79
2022/02/12 09:13:55;;;;;;;22.70;12.40;;;0.90;1.00;;;;;;4936354;29;20114;-79
2022/02/12 09:16:23;;;;;;;19.52;13.48;;;0.90;1.00;;;;;;4935081;29;20039;-76
2022/02/12 09:18:52;;;;;;;20.58;13.57;;;1.00;1.00;;;;;;4929135;29;20026;-76
2022/02/12 09:21:18;;;;;;;19.92;14.32;;;1.00;1.00;;;;;;4935473;29;20024;-75
2022/02/12 09:23:43;;;;;;;16.75;13.13;;;1.20;1.00;;;;;;4931154;29;20024;-75
2022/02/12 09:26:09;;;;;;;18.08;14.40;;;1.20;1.00;;;;;;4933011;29;20016;-76
2022/02/12 09:28:35;;;;;;;20.58;14.43;;;1.50;1.00;;;;;;4933118;29;20051;-77
2022/02/12 09:31:00;;;;;;;23.67;13.93;;;1.60;1.00;;;;;;4931577;29;20507;-78
2022/02/12 09:33:26;;;;;;;27.05;14.50;;;1.80;1.00;;;;;;4939704;29;20052;-80
2022/02/12 09:35:56;;;;;;;19.90;14.23;;;1.90;1.00;;;;;;4947931;29;20074;-80
2022/02/12 09:38:23;;;;;;;23.05;14.63;;;2.10;1.00;;;;;;4938942;29;20027;-77
2022/02/12 09:40:50;;;;;;;20.63;14.50;;;2.10;1.00;;;;;;4936389;29;20026;-81
2022/02/12 09:43:18;;;;;;;19.92;14.52;;;2.10;99.90;;;;;;4939144;29;20083;-80
2022/02/12 09:46:30;;;;;;;22.52;14.25;;;2.30;99.90;;;;;;4937288;29;20528;-81
2022/02/12 09:48:57;;;;;;;20.48;14.10;;;2.40;99.90;;;;;;4925878;29;20039;-77
2022/02/12 09:51:24;;;;;;;22.50;12.32;;;2.60;99.90;;;;;;4938711;29;20019;-78
2022/02/12 09:53:50;;;;;;;16.45;12.32;;;2.70;99.90;;;;;;4933476;29;20032;-78
2022/02/12 09:56:16;;;;;;;19.65;13.30;;;2.80;99.90;;;;;;4939954;29;20086;-79
2022/02/12 09:58:42;;;;;;;16.45;12.30;;;2.80;99.90;;;;;;4935950;29;20027;-79
2022/02/12 10:01:09;;;;;;;17.63;11.70;;;2.90;99.90;;;;;;4936123;29;20031;-80
2022/02/12 10:03:35;;;;;;;18.05;11.13;;;3.10;1.00;;;;;;4933637;29;20031;-79
2022/02/12 10:06:01;;;;;;;20.60;11.88;;;3.10;1.00;;;;;;4931623;29;20373;-79
2022/02/12 10:08:27;;;;;;;24.15;13.10;;;3.10;99.90;;;;;;4934316;29;20067;-75
2022/02/12 10:10:53;;;;;;;17.85;12.88;;;3.20;99.90;;;;;;4934387;29;20464;-81
2022/02/12 10:13:22;;;;;;;19.35;12.60;;;3.40;1.00;;;;;;4935888;29;20032;-81
2022/02/12 10:15:51;;;;;;;15.33;10.83;;;3.60;99.90;;;;;;4931783;29;20032;-79
2022/02/12 10:18:20;;;;;;;20.65;11.07;;;3.90;1.00;;;;;;4940791;29;20028;-79
2022/02/12 10:20:48;;;;;;;21.17;12.90;;;4.00;70.40;;;;;;4937224;29;20054;-77
2022/02/12 10:23:21;;;;;;;19.10;11.43;;;4.10;31.40;;;;;;4933554;29;20028;-76
2022/02/12 10:25:50;;;;;;;15.73;11.25;;;4.10;99.90;;;;;;4934827;29;20044;-76
2022/02/12 10:28:18;;;;;;;17.40;10.27;;;4.30;99.90;;;;;;4933683;29;20074;-74
2022/02/12 10:30:47;;;;;;;22.02;10.60;;;4.40;99.90;;;;;;4938421;29;20027;-78
2022/02/12 10:33:13;;;;;;;14.65;10.27;;;4.40;99.90;;;;;;4934469;29;20028;-78
2022/02/12 10:35:41;;;;;;;14.18;10.27;;;4.40;99.90;;;;;;4933668;29;20028;-77
2022/02/12 10:38:10;;;;;;;17.90;9.95;;;4.60;99.90;;;;;;4934072;29;20131;-76
2022/02/12 10:40:37;;;;;;;15.88;9.30;;;4.60;99.90;;;;;;4925828;29;20028;-77
2022/02/12 10:43:03;;;;;;;16.70;10.32;;;4.80;99.90;;;;;;4934231;29;20072;-77
2022/02/12 10:45:30;;;;;;;23.92;11.15;;;4.80;99.90;;;;;;4934609;29;20059;-74
2022/02/12 10:47:58;;;;;;;19.98;12.02;;;4.90;99.90;;;;;;4932911;29;20032;-76
2022/02/12 10:50:30;;;;;;;14.93;9.73;;;4.90;99.90;;;;;;4936806;29;20031;-77
2022/02/12 10:52:59;;;;;;;13.35;9.57;;;5.00;99.90;;;;;;4938895;29;20444;-77
2022/02/12 10:55:35;;;;;;;14.52;10.48;;;4.90;99.90;;;;;;4937091;29;20039;-79
2022/02/12 10:58:12;;;;;;;15.73;10.30;;;5.20;99.90;;;;;;4933864;29;20047;-78
2022/02/12 11:00:42;;;;;;;14.85;9.15;;;5.40;99.90;;;;;;4935802;29;20035;-76
2022/02/12 11:03:10;;;;;;;13.52;8.70;;;5.50;99.90;;;;;;4935579;29;20057;-76
2022/02/12 11:05:40;;;;;;;13.30;8.98;;;5.40;99.90;;;;;;4945076;29;20049;-77
2022/02/12 11:08:07;;;;;;;12.37;9.20;;;5.40;99.90;;;;;;4958538;29;20087;-77
2022/02/12 11:10:38;;;;;;;13.10;8.65;;;5.70;99.90;;;;;;4962296;28;20319;-76
2022/02/12 11:13:06;;;;;;;20.33;9.50;;;5.70;99.90;;;;;;4953024;28;20039;-76
2022/02/12 11:15:32;;;;;;;12.27;8.43;;;5.90;99.90;;;;;;4951890;29;20036;-76
2022/02/12 11:18:03;;;;;;;16.65;8.65;;;5.80;99.90;;;;;;4954118;28;20039;-75
2022/02/12 11:20:29;;;;;;;16.88;7.80;;;5.90;99.90;;;;;;4961674;28;20016;-76
2022/02/12 11:23:20;;;;;;;10.35;6.93;;;6.10;99.90;;;;;;4961683;28;20046;-75
2022/02/12 11:25:47;;;;;;;12.02;7.47;;;6.30;99.90;;;;;;4949446;28;20027;-75
2022/02/12 11:28:14;;;;;;;15.77;10.40;;;6.40;99.90;;;;;;4947848;29;20036;-78
2022/02/12 11:30:41;;;;;;;11.73;6.90;;;6.50;99.90;;;;;;4941659;29;20035;-76
2022/02/12 11:33:20;;;;;;;12.32;6.90;;;6.60;99.90;;;;;;4940846;28;20393;-77
2022/02/12 11:36:10;;;;;;;13.55;7.68;;;6.80;99.90;;;;;;4944577;29;20026;-76
2022/02/12 11:38:38;;;;;;;14.88;7.15;;;6.80;99.90;;;;;;4956417;29;20027;-76
2022/02/12 11:41:20;;;;;;;12.05;7.68;;;7.00;99.90;;;;;;4960660;28;20091;-76
2022/02/12 11:43:46;;;;;;;8.10;6.30;;;7.00;99.90;;;;;;4957499;28;20020;-76
2022/02/12 11:46:12;;;;;;;10.13;5.57;;;7.00;99.90;;;;;;4956597;28;20028;-75
2022/02/12 11:48:38;;;;;;;14.45;8.02;;;7.00;99.90;;;;;;4950516;28;20036;-75
2022/02/12 11:51:12;;;;;;;9.63;4.97;;;7.20;99.90;;;;;;4952576;28;20107;-76
2022/02/12 11:53:56;;;;;;;6.82;4.93;;;7.20;99.90;;;;;;4942859;29;20080;-75
2022/02/12 11:56:22;;;;;;;8.00;2.83;;;6.90;99.90;;;;;;4932606;29;20027;-77
2022/02/12 11:58:59;;;;;;;7.05;3.30;;;7.10;99.60;;;;;;4932160;29;20032;-76
2022/02/12 12:01:25;;;;;;;8.93;2.67;;;7.10;99.20;;;;;;4951262;28;20024;-77
2022/02/12 12:04:10;;;;;;;7.60;3.45;;;7.10;98.40;;;;;;4936668;29;20476;-76
2022/02/12 12:06:39;;;;;;;6.60;3.75;;;7.40;98.60;;;;;;4938173;29;20035;-77
2022/02/12 12:09:09;;;;;;;3.30;2.83;;;7.30;98.90;;;;;;4938690;29;20492;-78
2022/02/12 12:11:36;;;;;;;9.55;2.72;;;7.40;98.80;;;;;;4927874;29;20036;-77
2022/02/12 12:14:23;;;;;;;4.47;2.72;;;7.70;96.90;;;;;;4932035;29;20082;-75
2022/02/12 12:16:53;;;;;;;5.93;2.97;;;7.50;97.20;;;;;;4952065;28;20023;-76
2022/02/12 12:19:25;;;;;;;8.85;3.78;;;7.40;96.60;;;;;;4928714;29;20426;-77
2022/02/12 12:21:54;;;;;;;3.35;2.65;;;7.30;96.80;;;;;;4942176;29;20035;-75
2022/02/12 12:24:20;;;;;;;4.07;2.45;;;7.50;96.10;;;;;;4929379;29;20024;-75
2022/02/12 12:26:48;;;;;;;5.97;3.33;;;7.60;95.90;;;;;;4935674;29;20509;-75
2022/02/12 12:32:06;;;;;;;3.67;2.35;;;7.60;95.70;;;;;;4925698;29;20047;-77
2022/02/12 12:34:32;;;;;;;6.05;2.70;;;7.40;95.80;;;;;;4932750;29;20465;-76
2022/02/12 12:36:58;;;;;;;2.80;2.58;;;7.70;95.60;;;;;;4926801;29;20046;-76
2022/02/12 12:39:37;;;;;;;4.53;3.53;;;7.70;95.10;;;;;;4938919;29;20032;-77
2022/02/12 12:42:13;;;;;;;4.00;2.60;;;7.90;94.30;;;;;;4929568;29;20028;-77
2022/02/12 12:44:39;;;;;;;7.40;3.03;;;8.00;94.30;;;;;;4929550;29;20032;-77
2022/02/12 12:47:05;;;;;;;5.10;3.00;;;7.90;94.20;;;;;;4936426;29;20019;-77
2022/02/12 12:49:33;;;;;;;6.07;2.65;;;7.90;94.10;;;;;;4935144;29;20448;-76
2022/02/12 12:52:00;;;;;;;4.13;2.28;;;8.10;93.60;;;;;;4933909;29;20042;-77
2022/02/12 12:54:40;;;;;;;3.97;2.13;;;8.20;92.90;;;;;;4936280;29;20034;-76